IBE09AR LDSP-LEMD
Flight info
| Callsign | IBE09AR |
|---|---|
| Flight time | 3h 2m |
| Altitude | 19000 |
| Route | TORPO M730 LISKO/N0456F340 DCT GEKBA/N0455F350 DCT VAMTU DCT KOLON DCT GANGU DCT PADKO DCT DIVKO DCT NILDU DCT NENDA N975 RAMON/N0455F310 N975 ADUXO |
| Aircraft | A320/M-SDE3FGHIRWY/LB1 |
Departure
| Time | 2026-05-07 13:21 |
|---|---|
| Airport | Split Saint Jerome Airport (LDSP) |
Arrival
| Time | 2026-05-07 16:23 |
|---|---|
| Airport | Adolfo Suárez Madrid–Barajas Airport (LEMD) |
| Time | Latitude | Longitude | Altitude | Speed | Heading |
|---|---|---|---|---|---|
| 2026-05-07 12:43 | 43.53691 | 16.29808 | 73 ft | 0 kts | 117° |
| 2026-05-07 12:44 | 43.53726 | 16.29874 | 66 ft | 0 kts | 114° |
| 2026-05-07 12:44 | 43.53759 | 16.29944 | 63 ft | 0 kts | 114° |
| 2026-05-07 13:08 | 43.53767 | 16.29918 | 62 ft | 4 kts | 116° |
| 2026-05-07 13:09 | 43.53780 | 16.29887 | 64 ft | 4 kts | 141° |
| 2026-05-07 13:09 | 43.53801 | 16.29876 | 60 ft | 4 kts | 213° |
| 2026-05-07 13:09 | 43.53810 | 16.29887 | 67 ft | 1 kts | 233° |
| 2026-05-07 13:09 | 43.53810 | 16.29888 | 67 ft | 1 kts | 233° |
| 2026-05-07 13:12 | 43.53808 | 16.29884 | 68 ft | 2 kts | 233° |
| 2026-05-07 13:12 | 43.53797 | 16.29864 | 60 ft | 4 kts | 232° |
| 2026-05-07 13:13 | 43.53778 | 16.29830 | 61 ft | 5 kts | 232° |
| 2026-05-07 13:13 | 43.53753 | 16.29787 | 66 ft | 6 kts | 232° |
| 2026-05-07 13:13 | 43.53726 | 16.29737 | 71 ft | 7 kts | 233° |
| 2026-05-07 13:13 | 43.53693 | 16.29678 | 71 ft | 4 kts | 233° |
| 2026-05-07 13:14 | 43.53688 | 16.29669 | 69 ft | 4 kts | 232° |
| 2026-05-07 13:14 | 43.53678 | 16.29613 | 76 ft | 9 kts | 263° |
| 2026-05-07 13:15 | 43.53681 | 16.29572 | 71 ft | 3 kts | 285° |
| 2026-05-07 13:15 | 43.53693 | 16.29509 | 69 ft | 10 kts | 272° |
| 2026-05-07 13:15 | 43.53680 | 16.29432 | 75 ft | 14 kts | 249° |
| 2026-05-07 13:15 | 43.53615 | 16.29298 | 69 ft | 20 kts | 232° |
| 2026-05-07 13:16 | 43.53523 | 16.29133 | 68 ft | 22 kts | 232° |
| 2026-05-07 13:16 | 43.53432 | 16.28970 | 72 ft | 22 kts | 232° |
| 2026-05-07 13:16 | 43.53341 | 16.28808 | 73 ft | 20 kts | 232° |
| 2026-05-07 13:16 | 43.53257 | 16.28659 | 81 ft | 17 kts | 228° |
| 2026-05-07 13:17 | 43.53205 | 16.28586 | 85 ft | 9 kts | 315° |
| 2026-05-07 13:17 | 43.53249 | 16.28641 | 86 ft | 13 kts | 54° |
| 2026-05-07 13:17 | 43.53256 | 16.28654 | 81 ft | 0 kts | 53° |
| 2026-05-07 13:20 | 43.53309 | 16.28750 | 84 ft | 44 kts | 53° |
| 2026-05-07 13:20 | 43.53670 | 16.29395 | 67 ft | 123 kts | 53° |
| 2026-05-07 13:20 | 43.54320 | 16.30547 | 148 ft | 173 kts | 57° |
| 2026-05-07 13:21 | 43.55033 | 16.31877 | 1035 ft | 173 kts | 57° |
| 2026-05-07 13:21 | 43.55630 | 16.33330 | 1681 ft | 178 kts | 79° |
| 2026-05-07 13:21 | 43.55584 | 16.35011 | 2156 ft | 177 kts | 115° |
| 2026-05-07 13:21 | 43.54854 | 16.36338 | 2730 ft | 175 kts | 146° |
| 2026-05-07 13:22 | 43.53736 | 16.36917 | 3272 ft | 178 kts | 173° |
| 2026-05-07 13:22 | 43.52478 | 16.37083 | 3804 ft | 180 kts | 163° |
| 2026-05-07 13:22 | 43.51349 | 16.37817 | 4303 ft | 185 kts | 154° |
| 2026-05-07 13:22 | 43.50150 | 16.38673 | 4631 ft | 205 kts | 154° |
| 2026-05-07 13:23 | 43.48782 | 16.39645 | 4712 ft | 239 kts | 154° |
| 2026-05-07 13:23 | 43.47185 | 16.40752 | 4688 ft | 279 kts | 156° |
| 2026-05-07 13:23 | 43.45249 | 16.41671 | 4084 ft | 301 kts | 169° |
| 2026-05-07 13:23 | 43.43167 | 16.41684 | 3594 ft | 301 kts | 190° |
| 2026-05-07 13:24 | 43.41250 | 16.40503 | 3590 ft | 312 kts | 217° |
| 2026-05-07 13:24 | 43.40021 | 16.38071 | 4503 ft | 309 kts | 247° |
| 2026-05-07 13:24 | 43.39408 | 16.35343 | 5623 ft | 288 kts | 251° |
| 2026-05-07 13:24 | 43.38857 | 16.32783 | 6683 ft | 274 kts | 252° |
| 2026-05-07 13:25 | 43.38321 | 16.30281 | 7586 ft | 272 kts | 252° |
| 2026-05-07 13:25 | 43.37782 | 16.27784 | 8420 ft | 273 kts | 251° |
| 2026-05-07 13:25 | 43.36948 | 16.25431 | 9211 ft | 275 kts | 238° |
| 2026-05-07 13:25 | 43.35852 | 16.23282 | 10006 ft | 276 kts | 233° |
| 2026-05-07 13:26 | 43.34808 | 16.21068 | 10715 ft | 278 kts | 245° |
| 2026-05-07 13:26 | 43.34312 | 16.18494 | 11481 ft | 281 kts | 266° |
| 2026-05-07 13:26 | 43.34487 | 16.15784 | 12009 ft | 295 kts | 277° |
| 2026-05-07 13:26 | 43.34854 | 16.12903 | 12189 ft | 318 kts | 278° |
| 2026-05-07 13:27 | 43.35279 | 16.09816 | 12322 ft | 339 kts | 279° |
| 2026-05-07 13:27 | 43.35737 | 16.06556 | 12682 ft | 352 kts | 279° |
| 2026-05-07 13:27 | 43.36202 | 16.03225 | 13310 ft | 357 kts | 278° |
| 2026-05-07 13:27 | 43.36662 | 15.99859 | 13915 ft | 360 kts | 278° |
| 2026-05-07 13:28 | 43.37112 | 15.96506 | 14482 ft | 363 kts | 278° |
| 2026-05-07 13:28 | 43.37573 | 15.93038 | 15085 ft | 366 kts | 278° |
| 2026-05-07 13:28 | 43.38028 | 15.89589 | 15630 ft | 368 kts | 278° |
| 2026-05-07 13:28 | 43.38477 | 15.86155 | 16169 ft | 371 kts | 278° |
| 2026-05-07 13:29 | 43.38934 | 15.82659 | 16720 ft | 373 kts | 278° |
| 2026-05-07 13:29 | 43.39394 | 15.79130 | 17269 ft | 376 kts | 278° |
| 2026-05-07 13:29 | 43.39855 | 15.75591 | 17809 ft | 378 kts | 277° |
| 2026-05-07 13:29 | 43.40319 | 15.72022 | 18325 ft | 380 kts | 277° |
| 2026-05-07 13:30 | 43.40786 | 15.68422 | 18784 ft | 382 kts | 277° |
| 2026-05-07 13:30 | 43.41252 | 15.64820 | 18976 ft | 383 kts | 277° |
| 2026-05-07 13:30 | 43.41719 | 15.61232 | 19026 ft | 382 kts | 277° |
| 2026-05-07 13:30 | 43.42190 | 15.57631 | 19029 ft | 382 kts | 277° |
| 2026-05-07 13:31 | 43.42658 | 15.54031 | 19024 ft | 381 kts | 277° |
| 2026-05-07 13:31 | 43.43120 | 15.50440 | 19019 ft | 381 kts | 277° |
| 2026-05-07 13:31 | 43.43578 | 15.46849 | 19019 ft | 381 kts | 277° |
| 2026-05-07 13:31 | 43.44034 | 15.43267 | 19015 ft | 381 kts | 277° |
| 2026-05-07 13:32 | 43.44490 | 15.39678 | 19010 ft | 381 kts | 277° |
| 2026-05-07 13:32 | 43.44945 | 15.36086 | 19013 ft | 381 kts | 277° |
| 2026-05-07 13:32 | 43.45398 | 15.32498 | 19011 ft | 380 kts | 277° |
| 2026-05-07 13:32 | 43.45852 | 15.28916 | 19012 ft | 380 kts | 277° |
| 2026-05-07 13:33 | 43.46307 | 15.25332 | 19011 ft | 380 kts | 277° |
| 2026-05-07 13:33 | 43.46761 | 15.21746 | 19013 ft | 380 kts | 277° |
| 2026-05-07 13:33 | 43.47211 | 15.18165 | 19012 ft | 379 kts | 277° |
| 2026-05-07 13:33 | 43.47649 | 15.14637 | 19018 ft | 379 kts | 277° |
| 2026-05-07 13:34 | 43.48096 | 15.11008 | 19018 ft | 379 kts | 277° |
| 2026-05-07 13:34 | 43.48980 | 15.03907 | 19021 ft | 378 kts | 277° |
| 2026-05-07 13:34 | 43.49424 | 15.00349 | 19021 ft | 378 kts | 277° |
| 2026-05-07 13:35 | 43.49869 | 14.96781 | 19018 ft | 378 kts | 277° |
| 2026-05-07 13:35 | 43.50311 | 14.93206 | 19020 ft | 378 kts | 277° |
| 2026-05-07 13:35 | 43.50747 | 14.89650 | 19019 ft | 377 kts | 277° |
| 2026-05-07 13:35 | 43.51180 | 14.86087 | 19023 ft | 377 kts | 277° |
| 2026-05-07 13:36 | 43.51612 | 14.82526 | 19020 ft | 377 kts | 277° |
| 2026-05-07 13:36 | 43.52043 | 14.78966 | 19020 ft | 377 kts | 277° |
| 2026-05-07 13:36 | 43.52475 | 14.75407 | 19021 ft | 376 kts | 277° |
| 2026-05-07 13:36 | 43.52906 | 14.71850 | 19020 ft | 376 kts | 277° |
| 2026-05-07 13:37 | 43.53334 | 14.68295 | 19020 ft | 376 kts | 277° |
| 2026-05-07 13:37 | 43.53761 | 14.64741 | 19020 ft | 376 kts | 277° |
| 2026-05-07 13:37 | 43.54204 | 14.61191 | 19016 ft | 376 kts | 278° |
| 2026-05-07 13:37 | 43.54689 | 14.57652 | 18998 ft | 375 kts | 277° |
| 2026-05-07 13:38 | 43.55121 | 14.54103 | 19015 ft | 375 kts | 276° |
| 2026-05-07 13:38 | 43.55522 | 14.50547 | 19016 ft | 375 kts | 276° |
| 2026-05-07 13:38 | 43.55913 | 14.46998 | 19018 ft | 375 kts | 276° |
| 2026-05-07 13:38 | 43.56307 | 14.43450 | 19019 ft | 375 kts | 275° |
| 2026-05-07 13:39 | 43.56482 | 14.39924 | 19018 ft | 373 kts | 269° |
| 2026-05-07 13:39 | 43.56565 | 14.36355 | 19017 ft | 373 kts | 270° |
| 2026-05-07 13:39 | 43.56655 | 14.32778 | 19017 ft | 373 kts | 270° |
| 2026-05-07 13:39 | 43.56747 | 14.29211 | 19016 ft | 373 kts | 270° |
| 2026-05-07 13:40 | 43.56839 | 14.25641 | 19017 ft | 372 kts | 270° |
| 2026-05-07 13:40 | 43.56927 | 14.22079 | 19018 ft | 372 kts | 270° |
| 2026-05-07 13:40 | 43.57013 | 14.18502 | 19016 ft | 372 kts | 270° |
| 2026-05-07 13:40 | 43.57098 | 14.14937 | 19016 ft | 372 kts | 270° |
| 2026-05-07 13:41 | 43.57384 | 14.11383 | 19015 ft | 375 kts | 278° |
| 2026-05-07 13:41 | 43.57880 | 14.07841 | 19321 ft | 378 kts | 278° |
| 2026-05-07 13:41 | 43.58379 | 14.04274 | 19818 ft | 379 kts | 278° |
| 2026-05-07 13:41 | 43.58879 | 14.00694 | 20292 ft | 381 kts | 277° |
| 2026-05-07 13:42 | 43.59379 | 13.97105 | 20755 ft | 382 kts | 277° |
| 2026-05-07 13:42 | 43.59877 | 13.93495 | 21203 ft | 384 kts | 277° |
| 2026-05-07 13:42 | 43.60373 | 13.89869 | 21667 ft | 385 kts | 277° |
| 2026-05-07 13:42 | 43.60868 | 13.86231 | 22096 ft | 387 kts | 277° |
| 2026-05-07 13:43 | 43.61369 | 13.82577 | 22534 ft | 389 kts | 277° |
| 2026-05-07 13:43 | 43.61873 | 13.78900 | 22971 ft | 390 kts | 277° |
| 2026-05-07 13:43 | 43.62375 | 13.75209 | 23387 ft | 392 kts | 276° |
| 2026-05-07 13:43 | 43.62877 | 13.71499 | 23764 ft | 394 kts | 276° |
| 2026-05-07 13:44 | 43.63381 | 13.67781 | 24105 ft | 395 kts | 276° |
| 2026-05-07 13:44 | 43.63879 | 13.64094 | 24443 ft | 397 kts | 276° |
| 2026-05-07 13:44 | 43.64389 | 13.60293 | 24777 ft | 398 kts | 276° |
| 2026-05-07 13:44 | 43.64891 | 13.56531 | 25110 ft | 400 kts | 276° |
| 2026-05-07 13:45 | 43.65387 | 13.52800 | 25435 ft | 401 kts | 276° |
| 2026-05-07 13:45 | 43.65892 | 13.48995 | 25762 ft | 403 kts | 276° |
| 2026-05-07 13:45 | 43.66399 | 13.45191 | 26079 ft | 404 kts | 276° |
| 2026-05-07 13:45 | 43.66907 | 13.41365 | 26391 ft | 406 kts | 276° |
| 2026-05-07 13:46 | 43.67418 | 13.37519 | 26693 ft | 407 kts | 276° |
| 2026-05-07 13:46 | 43.67926 | 13.33671 | 26986 ft | 409 kts | 276° |
| 2026-05-07 13:46 | 43.68432 | 13.29800 | 27269 ft | 410 kts | 276° |
| 2026-05-07 13:46 | 43.68939 | 13.25910 | 27541 ft | 412 kts | 276° |
| 2026-05-07 13:47 | 43.69450 | 13.22010 | 27822 ft | 413 kts | 276° |
| 2026-05-07 13:47 | 43.69965 | 13.18097 | 28101 ft | 415 kts | 276° |
| 2026-05-07 13:47 | 43.70483 | 13.14170 | 28376 ft | 416 kts | 276° |
| 2026-05-07 13:47 | 43.70997 | 13.10242 | 28653 ft | 417 kts | 276° |
| 2026-05-07 13:48 | 43.71511 | 13.06291 | 29012 ft | 416 kts | 276° |
| 2026-05-07 13:48 | 43.72018 | 13.02358 | 29421 ft | 415 kts | 276° |
| 2026-05-07 13:48 | 43.72521 | 12.98433 | 29843 ft | 413 kts | 276° |
| 2026-05-07 13:48 | 43.73017 | 12.94533 | 30218 ft | 411 kts | 276° |
| 2026-05-07 13:49 | 43.73508 | 12.90654 | 30538 ft | 410 kts | 276° |
| 2026-05-07 13:49 | 43.74003 | 12.86772 | 30851 ft | 409 kts | 276° |
| 2026-05-07 13:49 | 43.74499 | 12.82896 | 31134 ft | 409 kts | 276° |
| 2026-05-07 13:49 | 43.74992 | 12.79031 | 31418 ft | 408 kts | 276° |
| 2026-05-07 13:50 | 43.75484 | 12.75168 | 31748 ft | 407 kts | 276° |
| 2026-05-07 13:50 | 43.75966 | 12.71370 | 32086 ft | 405 kts | 276° |
| 2026-05-07 13:50 | 43.76454 | 12.67488 | 32427 ft | 404 kts | 276° |
| 2026-05-07 13:50 | 43.76925 | 12.63710 | 32755 ft | 403 kts | 276° |
| 2026-05-07 13:51 | 43.77403 | 12.59852 | 33062 ft | 402 kts | 276° |
| 2026-05-07 13:51 | 43.77875 | 12.56043 | 33380 ft | 401 kts | 276° |
| 2026-05-07 13:51 | 43.78340 | 12.52287 | 33694 ft | 400 kts | 276° |
| 2026-05-07 13:51 | 43.78810 | 12.48500 | 33943 ft | 400 kts | 276° |
| 2026-05-07 13:52 | 43.79279 | 12.44714 | 33999 ft | 400 kts | 276° |
| 2026-05-07 13:52 | 43.80221 | 12.37133 | 34004 ft | 400 kts | 276° |
| 2026-05-07 13:53 | 43.81160 | 12.29533 | 34005 ft | 400 kts | 276° |
| 2026-05-07 13:53 | 43.82089 | 12.21939 | 34010 ft | 400 kts | 276° |
| 2026-05-07 13:54 | 43.83000 | 12.14347 | 34012 ft | 399 kts | 276° |
| 2026-05-07 13:54 | 43.83911 | 12.06755 | 34019 ft | 399 kts | 276° |
| 2026-05-07 13:55 | 43.84818 | 11.99188 | 34013 ft | 399 kts | 276° |
| 2026-05-07 13:55 | 43.85726 | 11.91597 | 34017 ft | 399 kts | 276° |
| 2026-05-07 13:56 | 43.86621 | 11.84020 | 34019 ft | 399 kts | 276° |
| 2026-05-07 13:56 | 43.87510 | 11.76437 | 34020 ft | 398 kts | 276° |
| 2026-05-07 13:57 | 43.88397 | 11.68870 | 34012 ft | 398 kts | 276° |
| 2026-05-07 13:57 | 43.89279 | 11.61310 | 34014 ft | 397 kts | 276° |
| 2026-05-07 13:58 | 43.90150 | 11.53791 | 34007 ft | 397 kts | 276° |
| 2026-05-07 13:58 | 43.91012 | 11.46221 | 34005 ft | 397 kts | 276° |
| 2026-05-07 13:59 | 43.91872 | 11.38661 | 34002 ft | 397 kts | 276° |
| 2026-05-07 13:59 | 43.92732 | 11.31091 | 34000 ft | 397 kts | 275° |
| 2026-05-07 14:00 | 43.93583 | 11.23522 | 34003 ft | 397 kts | 275° |
| 2026-05-07 14:00 | 43.94431 | 11.15949 | 34006 ft | 397 kts | 275° |
| 2026-05-07 14:01 | 43.95278 | 11.08377 | 33998 ft | 397 kts | 275° |
| 2026-05-07 14:01 | 43.96121 | 11.00804 | 34002 ft | 397 kts | 275° |
| 2026-05-07 14:02 | 43.96958 | 10.93218 | 34009 ft | 397 kts | 275° |
| 2026-05-07 14:02 | 43.97785 | 10.85633 | 34008 ft | 397 kts | 275° |
| 2026-05-07 14:03 | 43.98600 | 10.78050 | 34011 ft | 397 kts | 275° |
| 2026-05-07 14:03 | 43.99409 | 10.70576 | 34007 ft | 397 kts | 275° |
| 2026-05-07 14:04 | 44.00225 | 10.63005 | 34009 ft | 396 kts | 275° |
| 2026-05-07 14:04 | 44.01032 | 10.55438 | 34011 ft | 396 kts | 275° |
| 2026-05-07 14:05 | 44.01834 | 10.47852 | 34011 ft | 396 kts | 275° |
| 2026-05-07 14:05 | 44.02631 | 10.40291 | 34015 ft | 396 kts | 275° |
| 2026-05-07 14:06 | 44.03425 | 10.32713 | 34001 ft | 395 kts | 275° |
| 2026-05-07 14:06 | 44.04212 | 10.25146 | 34015 ft | 396 kts | 275° |
| 2026-05-07 14:07 | 44.04995 | 10.17571 | 34026 ft | 396 kts | 275° |
| 2026-05-07 14:07 | 44.05637 | 10.11284 | 34032 ft | 396 kts | 275° |
| 2026-05-07 14:08 | 44.06410 | 10.03696 | 34033 ft | 396 kts | 275° |
| 2026-05-07 14:08 | 44.07302 | 9.94893 | 34036 ft | 396 kts | 275° |
| 2026-05-07 14:09 | 44.08064 | 9.87304 | 34038 ft | 396 kts | 275° |
| 2026-05-07 14:09 | 44.08698 | 9.80956 | 34035 ft | 396 kts | 275° |
| 2026-05-07 14:10 | 44.09453 | 9.73369 | 34031 ft | 396 kts | 275° |
| 2026-05-07 14:10 | 44.10322 | 9.64553 | 34025 ft | 395 kts | 274° |
| 2026-05-07 14:11 | 44.10935 | 9.58249 | 34007 ft | 395 kts | 274° |
| 2026-05-07 14:11 | 44.11666 | 9.50665 | 34003 ft | 396 kts | 274° |
| 2026-05-07 14:12 | 44.12397 | 9.43070 | 33999 ft | 396 kts | 274° |
| 2026-05-07 14:12 | 44.13122 | 9.35464 | 33994 ft | 396 kts | 274° |
| 2026-05-07 14:13 | 44.13845 | 9.27858 | 33993 ft | 397 kts | 274° |
| 2026-05-07 14:13 | 44.14564 | 9.20243 | 33996 ft | 397 kts | 274° |
| 2026-05-07 14:14 | 44.15279 | 9.12616 | 33994 ft | 397 kts | 274° |
| 2026-05-07 14:14 | 44.15989 | 9.04980 | 33999 ft | 398 kts | 274° |
| 2026-05-07 14:15 | 44.16697 | 8.97341 | 34002 ft | 398 kts | 274° |
| 2026-05-07 14:15 | 44.17398 | 8.89684 | 34001 ft | 398 kts | 274° |
| 2026-05-07 14:16 | 44.18093 | 8.82021 | 34007 ft | 399 kts | 274° |
| 2026-05-07 14:16 | 44.18783 | 8.74357 | 34008 ft | 399 kts | 274° |
| 2026-05-07 14:17 | 44.19465 | 8.66739 | 34005 ft | 399 kts | 274° |
| 2026-05-07 14:17 | 44.20147 | 8.59066 | 34000 ft | 399 kts | 274° |
| 2026-05-07 14:18 | 44.20821 | 8.51395 | 33992 ft | 399 kts | 274° |
| 2026-05-07 14:18 | 44.21496 | 8.43715 | 33988 ft | 399 kts | 274° |
| 2026-05-07 14:19 | 44.22167 | 8.36020 | 33991 ft | 400 kts | 274° |
| 2026-05-07 14:19 | 44.22825 | 8.28310 | 33994 ft | 401 kts | 274° |
| 2026-05-07 14:20 | 44.23483 | 8.20600 | 33995 ft | 401 kts | 274° |
| 2026-05-07 14:20 | 44.24137 | 8.12887 | 33997 ft | 401 kts | 274° |
| 2026-05-07 14:21 | 44.24786 | 8.05161 | 33988 ft | 401 kts | 274° |
| 2026-05-07 14:21 | 44.25432 | 7.97439 | 33988 ft | 402 kts | 274° |
| 2026-05-07 14:22 | 44.26072 | 7.89693 | 33993 ft | 402 kts | 273° |
| 2026-05-07 14:22 | 44.26076 | 7.81977 | 33979 ft | 396 kts | 257° |
| 2026-05-07 14:23 | 44.23971 | 7.74933 | 33963 ft | 397 kts | 237° |
| 2026-05-07 14:23 | 44.20121 | 7.69354 | 34026 ft | 403 kts | 225° |
| 2026-05-07 14:23 | 44.18016 | 7.66764 | 34265 ft | 404 kts | 225° |
| 2026-05-07 14:24 | 44.15909 | 7.64179 | 34509 ft | 404 kts | 224° |
| 2026-05-07 14:24 | 44.13894 | 7.61471 | 34707 ft | 402 kts | 231° |
| 2026-05-07 14:24 | 44.12089 | 7.58562 | 34903 ft | 402 kts | 231° |
| 2026-05-07 14:25 | 44.08426 | 7.52681 | 34999 ft | 402 kts | 231° |
| 2026-05-07 14:25 | 44.04744 | 7.46811 | 34998 ft | 402 kts | 231° |
| 2026-05-07 14:26 | 44.01064 | 7.40959 | 35000 ft | 402 kts | 231° |
| 2026-05-07 14:26 | 43.97897 | 7.35923 | 34993 ft | 402 kts | 231° |
| 2026-05-07 14:27 | 43.94216 | 7.30074 | 34992 ft | 402 kts | 231° |
| 2026-05-07 14:27 | 43.90539 | 7.24244 | 34990 ft | 402 kts | 231° |
| 2026-05-07 14:28 | 43.86864 | 7.18408 | 34989 ft | 401 kts | 231° |
| 2026-05-07 14:28 | 43.83183 | 7.12590 | 34993 ft | 402 kts | 230° |
| 2026-05-07 14:29 | 43.79489 | 7.06782 | 34993 ft | 401 kts | 230° |
| 2026-05-07 14:29 | 43.75803 | 7.01003 | 34997 ft | 401 kts | 230° |
| 2026-05-07 14:30 | 43.72340 | 6.95041 | 34976 ft | 399 kts | 240° |
| 2026-05-07 14:30 | 43.70070 | 6.88070 | 34980 ft | 398 kts | 248° |
| 2026-05-07 14:31 | 43.67984 | 6.80977 | 34980 ft | 399 kts | 247° |
| 2026-05-07 14:31 | 43.65884 | 6.73877 | 34983 ft | 399 kts | 247° |
| 2026-05-07 14:32 | 43.63785 | 6.66801 | 34985 ft | 398 kts | 247° |
| 2026-05-07 14:32 | 43.61682 | 6.59718 | 34986 ft | 398 kts | 247° |
| 2026-05-07 14:33 | 43.59581 | 6.52659 | 34970 ft | 398 kts | 247° |
| 2026-05-07 14:33 | 43.57472 | 6.45603 | 34963 ft | 398 kts | 247° |
| 2026-05-07 14:34 | 43.55364 | 6.38557 | 34962 ft | 397 kts | 247° |
| 2026-05-07 14:34 | 43.53256 | 6.31506 | 34961 ft | 397 kts | 247° |
| 2026-05-07 14:35 | 43.51142 | 6.24480 | 34958 ft | 397 kts | 247° |
| 2026-05-07 14:35 | 43.49034 | 6.17514 | 34960 ft | 397 kts | 246° |
| 2026-05-07 14:36 | 43.46907 | 6.10504 | 34963 ft | 396 kts | 246° |
| 2026-05-07 14:36 | 43.44786 | 6.03512 | 34965 ft | 396 kts | 246° |
| 2026-05-07 14:37 | 43.42662 | 5.96540 | 34971 ft | 395 kts | 246° |
| 2026-05-07 14:37 | 43.39476 | 5.86084 | 34974 ft | 394 kts | 246° |
| 2026-05-07 14:38 | 43.37352 | 5.79149 | 34976 ft | 394 kts | 246° |
| 2026-05-07 14:38 | 43.35217 | 5.72212 | 34980 ft | 394 kts | 246° |
| 2026-05-07 14:39 | 43.33080 | 5.65288 | 34978 ft | 394 kts | 246° |
| 2026-05-07 14:39 | 43.30943 | 5.58356 | 34985 ft | 394 kts | 246° |
| 2026-05-07 14:40 | 43.28813 | 5.51443 | 34989 ft | 393 kts | 246° |
| 2026-05-07 14:40 | 43.26670 | 5.44542 | 34988 ft | 393 kts | 246° |
| 2026-05-07 14:41 | 43.24535 | 5.37691 | 34990 ft | 393 kts | 246° |
| 2026-05-07 14:41 | 43.22390 | 5.30815 | 34991 ft | 392 kts | 246° |
| 2026-05-07 14:42 | 43.20250 | 5.23950 | 34995 ft | 391 kts | 245° |
| 2026-05-07 14:42 | 43.18097 | 5.17100 | 34997 ft | 391 kts | 245° |
| 2026-05-07 14:43 | 43.15941 | 5.10276 | 35000 ft | 390 kts | 245° |
| 2026-05-07 14:43 | 43.13793 | 5.03460 | 35005 ft | 390 kts | 245° |
| 2026-05-07 14:44 | 43.11642 | 4.96647 | 35006 ft | 389 kts | 245° |
| 2026-05-07 14:44 | 43.09488 | 4.89859 | 35005 ft | 389 kts | 245° |
| 2026-05-07 14:45 | 43.07334 | 4.83088 | 35002 ft | 388 kts | 245° |
| 2026-05-07 14:45 | 43.04626 | 4.76762 | 35002 ft | 387 kts | 230° |
| 2026-05-07 14:46 | 43.00720 | 4.71767 | 35001 ft | 387 kts | 224° |
| 2026-05-07 14:46 | 42.96665 | 4.66868 | 35000 ft | 386 kts | 224° |
| 2026-05-07 14:47 | 42.92678 | 4.62050 | 35006 ft | 385 kts | 224° |
| 2026-05-07 14:47 | 42.88664 | 4.57222 | 35007 ft | 384 kts | 224° |
| 2026-05-07 14:48 | 42.84670 | 4.52415 | 35007 ft | 383 kts | 224° |
| 2026-05-07 14:48 | 42.80703 | 4.47643 | 35003 ft | 382 kts | 224° |
| 2026-05-07 14:49 | 42.76711 | 4.42867 | 35004 ft | 382 kts | 223° |
| 2026-05-07 14:49 | 42.72726 | 4.38107 | 35006 ft | 381 kts | 223° |
| 2026-05-07 14:50 | 42.68745 | 4.33349 | 35004 ft | 380 kts | 223° |
| 2026-05-07 14:50 | 42.64772 | 4.28607 | 35004 ft | 380 kts | 223° |
| 2026-05-07 14:51 | 42.60803 | 4.23878 | 35004 ft | 379 kts | 223° |
| 2026-05-07 14:51 | 42.56862 | 4.19198 | 35008 ft | 379 kts | 223° |
| 2026-05-07 14:52 | 42.52874 | 4.14482 | 35003 ft | 378 kts | 223° |
| 2026-05-07 14:52 | 42.48937 | 4.09828 | 35008 ft | 377 kts | 223° |
| 2026-05-07 14:53 | 42.44983 | 4.05158 | 35008 ft | 377 kts | 223° |
| 2026-05-07 14:53 | 42.41030 | 4.00487 | 35004 ft | 377 kts | 223° |
| 2026-05-07 14:54 | 42.37086 | 3.95814 | 34999 ft | 377 kts | 223° |
| 2026-05-07 14:54 | 42.33128 | 3.91172 | 34996 ft | 377 kts | 222° |
| 2026-05-07 14:55 | 42.29162 | 3.86537 | 34996 ft | 377 kts | 222° |
| 2026-05-07 14:55 | 42.25403 | 3.81640 | 34990 ft | 376 kts | 232° |
| 2026-05-07 14:56 | 42.22366 | 3.75882 | 34989 ft | 376 kts | 233° |
| 2026-05-07 14:56 | 42.19334 | 3.70123 | 34987 ft | 377 kts | 233° |
| 2026-05-07 14:57 | 42.16307 | 3.64401 | 34987 ft | 377 kts | 233° |
| 2026-05-07 14:57 | 42.13257 | 3.58646 | 34990 ft | 377 kts | 233° |
| 2026-05-07 14:58 | 42.10210 | 3.52890 | 34991 ft | 378 kts | 233° |
| 2026-05-07 14:58 | 42.07157 | 3.47134 | 34993 ft | 378 kts | 233° |
| 2026-05-07 14:59 | 42.04100 | 3.41388 | 34994 ft | 377 kts | 233° |
| 2026-05-07 14:59 | 42.01044 | 3.35654 | 34988 ft | 377 kts | 233° |
| 2026-05-07 15:00 | 41.97982 | 3.29913 | 34989 ft | 378 kts | 233° |
| 2026-05-07 15:00 | 41.94915 | 3.24185 | 34986 ft | 378 kts | 232° |
| 2026-05-07 15:01 | 41.92364 | 3.19431 | 34976 ft | 378 kts | 232° |
| 2026-05-07 15:01 | 41.89291 | 3.13692 | 34975 ft | 378 kts | 232° |
| 2026-05-07 15:02 | 41.86215 | 3.07965 | 34973 ft | 378 kts | 232° |
| 2026-05-07 15:02 | 41.83136 | 3.02247 | 34968 ft | 378 kts | 232° |
| 2026-05-07 15:03 | 41.80048 | 2.96535 | 34968 ft | 379 kts | 232° |
| 2026-05-07 15:03 | 41.76950 | 2.90814 | 34971 ft | 379 kts | 232° |
| 2026-05-07 15:04 | 41.73851 | 2.85086 | 34971 ft | 380 kts | 232° |
| 2026-05-07 15:04 | 41.70748 | 2.79365 | 34969 ft | 380 kts | 232° |
| 2026-05-07 15:05 | 41.67921 | 2.74176 | 34971 ft | 379 kts | 231° |
| 2026-05-07 15:05 | 41.64715 | 2.68587 | 34973 ft | 379 kts | 230° |
| 2026-05-07 15:06 | 41.61458 | 2.63088 | 34975 ft | 380 kts | 230° |
| 2026-05-07 15:06 | 41.58196 | 2.57536 | 34979 ft | 380 kts | 230° |
| 2026-05-07 15:07 | 41.54951 | 2.51972 | 34977 ft | 380 kts | 230° |
| 2026-05-07 15:07 | 41.51696 | 2.46403 | 34977 ft | 380 kts | 230° |
| 2026-05-07 15:08 | 41.48436 | 2.40842 | 34980 ft | 381 kts | 229° |
| 2026-05-07 15:08 | 41.45169 | 2.35286 | 34981 ft | 381 kts | 229° |
| 2026-05-07 15:09 | 41.41897 | 2.29718 | 34981 ft | 381 kts | 229° |
| 2026-05-07 15:09 | 41.38626 | 2.24167 | 34982 ft | 381 kts | 229° |
| 2026-05-07 15:10 | 41.35354 | 2.18616 | 34980 ft | 381 kts | 229° |
| 2026-05-07 15:10 | 41.32148 | 2.13015 | 34980 ft | 383 kts | 235° |
| 2026-05-07 15:11 | 41.30201 | 2.06370 | 34976 ft | 395 kts | 254° |
| 2026-05-07 15:11 | 41.29382 | 1.99109 | 34977 ft | 397 kts | 255° |
| 2026-05-07 15:12 | 41.28556 | 1.91895 | 34976 ft | 397 kts | 255° |
| 2026-05-07 15:12 | 41.27714 | 1.84645 | 34978 ft | 397 kts | 254° |
| 2026-05-07 15:13 | 41.26864 | 1.77380 | 34976 ft | 398 kts | 254° |
| 2026-05-07 15:13 | 41.26006 | 1.70114 | 34964 ft | 398 kts | 254° |
| 2026-05-07 15:14 | 41.25150 | 1.62846 | 34975 ft | 398 kts | 254° |
| 2026-05-07 15:14 | 41.24291 | 1.55572 | 34967 ft | 399 kts | 254° |
| 2026-05-07 15:15 | 41.23427 | 1.48285 | 34970 ft | 400 kts | 254° |
| 2026-05-07 15:15 | 41.22558 | 1.40987 | 34974 ft | 400 kts | 254° |
| 2026-05-07 15:16 | 41.21682 | 1.33694 | 34970 ft | 400 kts | 254° |
| 2026-05-07 15:16 | 41.20802 | 1.26400 | 34968 ft | 400 kts | 254° |
| 2026-05-07 15:17 | 41.19918 | 1.19089 | 34962 ft | 401 kts | 254° |
| 2026-05-07 15:17 | 41.19030 | 1.11824 | 34966 ft | 402 kts | 254° |
| 2026-05-07 15:18 | 41.18127 | 1.04497 | 34966 ft | 402 kts | 254° |
| 2026-05-07 15:18 | 41.17218 | 0.97162 | 34960 ft | 403 kts | 254° |
| 2026-05-07 15:19 | 41.16301 | 0.89814 | 34958 ft | 404 kts | 254° |
| 2026-05-07 15:19 | 41.15380 | 0.82458 | 34950 ft | 405 kts | 255° |
| 2026-05-07 15:20 | 41.14454 | 0.75085 | 34950 ft | 405 kts | 255° |
| 2026-05-07 15:20 | 41.13517 | 0.67697 | 34945 ft | 406 kts | 255° |
| 2026-05-07 15:21 | 41.12583 | 0.60302 | 34939 ft | 407 kts | 255° |
| 2026-05-07 15:21 | 41.11645 | 0.52892 | 34942 ft | 408 kts | 255° |
| 2026-05-07 15:22 | 41.10703 | 0.45471 | 34939 ft | 408 kts | 255° |
| 2026-05-07 15:22 | 41.09752 | 0.38095 | 34939 ft | 409 kts | 255° |
| 2026-05-07 15:23 | 41.08789 | 0.30656 | 34935 ft | 410 kts | 255° |
| 2026-05-07 15:23 | 41.07814 | 0.23205 | 34934 ft | 410 kts | 255° |
| 2026-05-07 15:24 | 41.06838 | 0.15745 | 34931 ft | 411 kts | 255° |
| 2026-05-07 15:24 | 41.05855 | 0.08275 | 34931 ft | 412 kts | 255° |
| 2026-05-07 15:25 | 41.04863 | 0.00815 | 34928 ft | 412 kts | 255° |
| 2026-05-07 15:25 | 41.03861 | -0.06661 | 34929 ft | 412 kts | 255° |
| 2026-05-07 15:26 | 41.02858 | -0.14147 | 34927 ft | 413 kts | 256° |
| 2026-05-07 15:26 | 41.01853 | -0.21653 | 34923 ft | 414 kts | 255° |
| 2026-05-07 15:27 | 41.00741 | -0.29107 | 34924 ft | 411 kts | 249° |
| 2026-05-07 15:27 | 40.98849 | -0.36232 | 34922 ft | 411 kts | 247° |
| 2026-05-07 15:28 | 40.96961 | -0.43196 | 34850 ft | 413 kts | 247° |
| 2026-05-07 15:28 | 40.95977 | -0.46819 | 34606 ft | 412 kts | 247° |
| 2026-05-07 15:28 | 40.94994 | -0.50426 | 34369 ft | 411 kts | 247° |
| 2026-05-07 15:29 | 40.94035 | -0.53945 | 34144 ft | 411 kts | 247° |
| 2026-05-07 15:29 | 40.93062 | -0.57510 | 33911 ft | 412 kts | 247° |
| 2026-05-07 15:29 | 40.92092 | -0.61063 | 33640 ft | 413 kts | 247° |
| 2026-05-07 15:29 | 40.91115 | -0.64644 | 33367 ft | 414 kts | 247° |
| 2026-05-07 15:30 | 40.90138 | -0.68223 | 33108 ft | 415 kts | 247° |
| 2026-05-07 15:30 | 40.89154 | -0.71819 | 32830 ft | 416 kts | 247° |
| 2026-05-07 15:30 | 40.88168 | -0.75418 | 32569 ft | 418 kts | 247° |
| 2026-05-07 15:30 | 40.87176 | -0.79028 | 32309 ft | 419 kts | 247° |
| 2026-05-07 15:31 | 40.86179 | -0.82652 | 32050 ft | 420 kts | 247° |
| 2026-05-07 15:31 | 40.85176 | -0.86284 | 31791 ft | 421 kts | 247° |
| 2026-05-07 15:31 | 40.84165 | -0.89926 | 31536 ft | 422 kts | 247° |
| 2026-05-07 15:31 | 40.83153 | -0.93572 | 31290 ft | 423 kts | 247° |
| 2026-05-07 15:32 | 40.82140 | -0.97219 | 31039 ft | 424 kts | 246° |
| 2026-05-07 15:32 | 40.81126 | -1.00881 | 30935 ft | 425 kts | 246° |
| 2026-05-07 15:32 | 40.79086 | -1.08213 | 30964 ft | 426 kts | 246° |
| 2026-05-07 15:33 | 40.77044 | -1.15544 | 30969 ft | 426 kts | 246° |
| 2026-05-07 15:33 | 40.74991 | -1.22898 | 30970 ft | 427 kts | 246° |
| 2026-05-07 15:34 | 40.72928 | -1.30239 | 30971 ft | 427 kts | 246° |
| 2026-05-07 15:34 | 40.70880 | -1.37520 | 30965 ft | 426 kts | 246° |
| 2026-05-07 15:35 | 40.68820 | -1.44840 | 30957 ft | 426 kts | 246° |
| 2026-05-07 15:35 | 40.66744 | -1.52171 | 30685 ft | 427 kts | 246° |
| 2026-05-07 15:36 | 40.65705 | -1.55833 | 30435 ft | 427 kts | 246° |
| 2026-05-07 15:36 | 40.64665 | -1.59501 | 30174 ft | 428 kts | 246° |
| 2026-05-07 15:36 | 40.63619 | -1.63184 | 29053 ft | 433 kts | 246° |
| 2026-05-07 15:36 | 40.62558 | -1.66924 | 27972 ft | 436 kts | 246° |
| 2026-05-07 15:37 | 40.61498 | -1.70657 | 27247 ft | 433 kts | 246° |
| 2026-05-07 15:37 | 40.60452 | -1.74337 | 26615 ft | 427 kts | 247° |
| 2026-05-07 15:37 | 40.59414 | -1.77977 | 25932 ft | 424 kts | 247° |
| 2026-05-07 15:37 | 40.58379 | -1.81587 | 25293 ft | 421 kts | 247° |
| 2026-05-07 15:38 | 40.57349 | -1.85173 | 24647 ft | 418 kts | 247° |
| 2026-05-07 15:38 | 40.56321 | -1.88748 | 24005 ft | 415 kts | 248° |
| 2026-05-07 15:38 | 40.55305 | -1.92284 | 23348 ft | 413 kts | 248° |
| 2026-05-07 15:38 | 40.54292 | -1.95808 | 22695 ft | 409 kts | 248° |
| 2026-05-07 15:39 | 40.53293 | -1.99285 | 22111 ft | 405 kts | 248° |
| 2026-05-07 15:39 | 40.52298 | -2.02733 | 21536 ft | 400 kts | 248° |
| 2026-05-07 15:39 | 40.51271 | -2.06107 | 20988 ft | 395 kts | 243° |
| 2026-05-07 15:39 | 40.49927 | -2.09238 | 20465 ft | 395 kts | 237° |
| 2026-05-07 15:40 | 40.48479 | -2.12312 | 19945 ft | 394 kts | 237° |
| 2026-05-07 15:40 | 40.47049 | -2.15361 | 19418 ft | 391 kts | 237° |
| 2026-05-07 15:40 | 40.45633 | -2.18388 | 18900 ft | 388 kts | 237° |
| 2026-05-07 15:40 | 40.44229 | -2.21394 | 18398 ft | 385 kts | 238° |
| 2026-05-07 15:41 | 40.42854 | -2.24349 | 17842 ft | 382 kts | 238° |
| 2026-05-07 15:41 | 40.41454 | -2.27351 | 17341 ft | 379 kts | 238° |
| 2026-05-07 15:41 | 40.40076 | -2.30292 | 16846 ft | 377 kts | 238° |
| 2026-05-07 15:41 | 40.38703 | -2.33203 | 16345 ft | 374 kts | 238° |
| 2026-05-07 15:42 | 40.37354 | -2.36065 | 15871 ft | 372 kts | 238° |
| 2026-05-07 15:42 | 40.36001 | -2.38949 | 15375 ft | 370 kts | 238° |
| 2026-05-07 15:42 | 40.34658 | -2.41810 | 14884 ft | 368 kts | 238° |
| 2026-05-07 15:42 | 40.33335 | -2.44612 | 14744 ft | 355 kts | 238° |
| 2026-05-07 15:43 | 40.32058 | -2.47308 | 14614 ft | 342 kts | 238° |
| 2026-05-07 15:43 | 40.30826 | -2.49915 | 14506 ft | 330 kts | 238° |
| 2026-05-07 15:43 | 40.29633 | -2.52429 | 14379 ft | 320 kts | 237° |
| 2026-05-07 15:43 | 40.28474 | -2.54865 | 14256 ft | 310 kts | 237° |
| 2026-05-07 15:44 | 40.27353 | -2.57230 | 14133 ft | 301 kts | 238° |
| 2026-05-07 15:44 | 40.26268 | -2.59523 | 14007 ft | 292 kts | 238° |
| 2026-05-07 15:44 | 40.25206 | -2.61740 | 13952 ft | 281 kts | 236° |
| 2026-05-07 15:44 | 40.23957 | -2.63606 | 13952 ft | 268 kts | 217° |
| 2026-05-07 15:45 | 40.22342 | -2.64690 | 13962 ft | 258 kts | 196° |
| 2026-05-07 15:45 | 40.20571 | -2.64923 | 13963 ft | 258 kts | 175° |
| 2026-05-07 15:45 | 40.18844 | -2.64275 | 13957 ft | 262 kts | 154° |
| 2026-05-07 15:45 | 40.17415 | -2.62799 | 13962 ft | 266 kts | 131° |
| 2026-05-07 15:46 | 40.16239 | -2.58243 | 13966 ft | 273 kts | 95° |
| 2026-05-07 15:46 | 40.16168 | -2.55761 | 13964 ft | 274 kts | 92° |
| 2026-05-07 15:46 | 40.16153 | -2.53265 | 13959 ft | 274 kts | 92° |
| 2026-05-07 15:47 | 40.16150 | -2.50767 | 13963 ft | 275 kts | 91° |
| 2026-05-07 15:47 | 40.16256 | -2.48280 | 13963 ft | 276 kts | 78° |
| 2026-05-07 15:47 | 40.17003 | -2.45980 | 13961 ft | 277 kts | 54° |
| 2026-05-07 15:47 | 40.18363 | -2.44221 | 13963 ft | 277 kts | 31° |
| 2026-05-07 15:48 | 40.20128 | -2.43278 | 13968 ft | 275 kts | 8° |
| 2026-05-07 15:48 | 40.22015 | -2.43283 | 13956 ft | 271 kts | 345° |
| 2026-05-07 15:48 | 40.23732 | -2.44214 | 13961 ft | 267 kts | 322° |
| 2026-05-07 15:48 | 40.25039 | -2.45888 | 13960 ft | 262 kts | 301° |
| 2026-05-07 15:49 | 40.25774 | -2.48034 | 13961 ft | 258 kts | 280° |
| 2026-05-07 15:49 | 40.25978 | -2.50358 | 13966 ft | 257 kts | 271° |
| 2026-05-07 15:49 | 40.26035 | -2.52697 | 13965 ft | 257 kts | 269° |
| 2026-05-07 15:49 | 40.26049 | -2.55040 | 13960 ft | 257 kts | 268° |
| 2026-05-07 15:50 | 40.26055 | -2.57381 | 13960 ft | 257 kts | 268° |
| 2026-05-07 15:50 | 40.26059 | -2.58928 | 13954 ft | 257 kts | 268° |
| 2026-05-07 15:50 | 40.25767 | -2.61999 | 13960 ft | 254 kts | 245° |
| 2026-05-07 15:50 | 40.24760 | -2.63839 | 13960 ft | 253 kts | 219° |
| 2026-05-07 15:51 | 40.23218 | -2.64902 | 13959 ft | 255 kts | 194° |
| 2026-05-07 15:51 | 40.21450 | -2.64955 | 13959 ft | 258 kts | 168° |
| 2026-05-07 15:51 | 40.19834 | -2.63931 | 13961 ft | 263 kts | 140° |
| 2026-05-07 15:51 | 40.18758 | -2.61993 | 13959 ft | 269 kts | 112° |
| 2026-05-07 15:52 | 40.18448 | -2.59581 | 13966 ft | 272 kts | 94° |
| 2026-05-07 15:52 | 40.18412 | -2.57907 | 13964 ft | 273 kts | 93° |
| 2026-05-07 15:52 | 40.18379 | -2.55452 | 13963 ft | 274 kts | 92° |
| 2026-05-07 15:52 | 40.18356 | -2.52934 | 13961 ft | 274 kts | 92° |
| 2026-05-07 15:53 | 40.18354 | -2.50475 | 13960 ft | 274 kts | 86° |
| 2026-05-07 15:53 | 40.18919 | -2.48115 | 13957 ft | 275 kts | 57° |
| 2026-05-07 15:53 | 40.20308 | -2.46387 | 13957 ft | 275 kts | 26° |
| 2026-05-07 15:53 | 40.22134 | -2.45766 | 13966 ft | 271 kts | 356° |
| 2026-05-07 15:54 | 40.23906 | -2.46335 | 13955 ft | 266 kts | 328° |
| 2026-05-07 15:54 | 40.25258 | -2.47912 | 13961 ft | 261 kts | 300° |
| 2026-05-07 15:54 | 40.25888 | -2.50091 | 13964 ft | 256 kts | 274° |
| 2026-05-07 15:54 | 40.25981 | -2.52416 | 13960 ft | 256 kts | 269° |
| 2026-05-07 15:55 | 40.26013 | -2.54757 | 13958 ft | 257 kts | 269° |
| 2026-05-07 15:55 | 40.26033 | -2.57089 | 13956 ft | 257 kts | 269° |
| 2026-05-07 15:55 | 40.26052 | -2.59424 | 13959 ft | 257 kts | 269° |
| 2026-05-07 15:55 | 40.25841 | -2.61728 | 13951 ft | 254 kts | 248° |
| 2026-05-07 15:56 | 40.24905 | -2.63653 | 13955 ft | 253 kts | 223° |
| 2026-05-07 15:56 | 40.23407 | -2.64829 | 13958 ft | 254 kts | 197° |
| 2026-05-07 15:56 | 40.21656 | -2.64999 | 13960 ft | 257 kts | 171° |
| 2026-05-07 15:56 | 40.20013 | -2.64077 | 13956 ft | 262 kts | 143° |
| 2026-05-07 15:57 | 40.18861 | -2.62222 | 13955 ft | 268 kts | 116° |
| 2026-05-07 15:57 | 40.18480 | -2.59841 | 13964 ft | 272 kts | 93° |
| 2026-05-07 15:57 | 40.18440 | -2.57352 | 13961 ft | 273 kts | 92° |
| 2026-05-07 15:57 | 40.18437 | -2.54869 | 13954 ft | 274 kts | 86° |
| 2026-05-07 15:58 | 40.19092 | -2.52560 | 14003 ft | 275 kts | 50° |
| 2026-05-07 15:58 | 40.20598 | -2.51139 | 14022 ft | 273 kts | 15° |
| 2026-05-07 15:58 | 40.22467 | -2.50957 | 14015 ft | 270 kts | 347° |
| 2026-05-07 15:58 | 40.24193 | -2.51814 | 14022 ft | 265 kts | 322° |
| 2026-05-07 15:59 | 40.25453 | -2.53522 | 14016 ft | 260 kts | 296° |
| 2026-05-07 15:59 | 40.25980 | -2.55740 | 14015 ft | 256 kts | 272° |
| 2026-05-07 15:59 | 40.26073 | -2.58125 | 14025 ft | 268 kts | 272° |
| 2026-05-07 15:59 | 40.26528 | -2.60472 | 13906 ft | 270 kts | 295° |
| 2026-05-07 16:00 | 40.27687 | -2.62388 | 13661 ft | 270 kts | 316° |
| 2026-05-07 16:00 | 40.29091 | -2.64020 | 13406 ft | 270 kts | 316° |
| 2026-05-07 16:00 | 40.30493 | -2.65652 | 13132 ft | 269 kts | 316° |
| 2026-05-07 16:00 | 40.31890 | -2.67277 | 12861 ft | 268 kts | 316° |
| 2026-05-07 16:01 | 40.33280 | -2.68903 | 12599 ft | 267 kts | 315° |
| 2026-05-07 16:01 | 40.34665 | -2.70527 | 12336 ft | 266 kts | 315° |
| 2026-05-07 16:01 | 40.36004 | -2.72100 | 12089 ft | 265 kts | 316° |
| 2026-05-07 16:01 | 40.37321 | -2.73644 | 11846 ft | 265 kts | 316° |
| 2026-05-07 16:02 | 40.38692 | -2.75250 | 11599 ft | 264 kts | 316° |
| 2026-05-07 16:02 | 40.40061 | -2.76852 | 11342 ft | 263 kts | 316° |
| 2026-05-07 16:02 | 40.41423 | -2.78450 | 11095 ft | 262 kts | 316° |
| 2026-05-07 16:02 | 40.42781 | -2.80042 | 10850 ft | 262 kts | 316° |
| 2026-05-07 16:03 | 40.44136 | -2.81634 | 10600 ft | 261 kts | 316° |
| 2026-05-07 16:03 | 40.45488 | -2.83227 | 10356 ft | 261 kts | 316° |
| 2026-05-07 16:03 | 40.46833 | -2.84814 | 10115 ft | 260 kts | 316° |
| 2026-05-07 16:03 | 40.48176 | -2.86397 | 9911 ft | 258 kts | 316° |
| 2026-05-07 16:04 | 40.49515 | -2.87975 | 9779 ft | 258 kts | 316° |
| 2026-05-07 16:04 | 40.50850 | -2.89552 | 9653 ft | 259 kts | 316° |
| 2026-05-07 16:04 | 40.52187 | -2.91134 | 9519 ft | 258 kts | 316° |
| 2026-05-07 16:04 | 40.53520 | -2.92710 | 9390 ft | 258 kts | 316° |
| 2026-05-07 16:05 | 40.54860 | -2.94294 | 9254 ft | 258 kts | 316° |
| 2026-05-07 16:05 | 40.56186 | -2.95863 | 9124 ft | 257 kts | 316° |
| 2026-05-07 16:05 | 40.57514 | -2.97436 | 8994 ft | 257 kts | 315° |
| 2026-05-07 16:05 | 40.58825 | -2.98989 | 8867 ft | 257 kts | 316° |
| 2026-05-07 16:06 | 40.60150 | -3.00556 | 8737 ft | 256 kts | 316° |
| 2026-05-07 16:06 | 40.61474 | -3.02120 | 8601 ft | 255 kts | 316° |
| 2026-05-07 16:06 | 40.62793 | -3.03684 | 8484 ft | 255 kts | 316° |
| 2026-05-07 16:06 | 40.64106 | -3.05243 | 8349 ft | 254 kts | 316° |
| 2026-05-07 16:07 | 40.65418 | -3.06802 | 8226 ft | 254 kts | 316° |
| 2026-05-07 16:07 | 40.66728 | -3.08356 | 8100 ft | 254 kts | 316° |
| 2026-05-07 16:07 | 40.68042 | -3.09912 | 7995 ft | 253 kts | 316° |
| 2026-05-07 16:07 | 40.69347 | -3.11460 | 7998 ft | 253 kts | 316° |
| 2026-05-07 16:08 | 40.70655 | -3.13015 | 8003 ft | 253 kts | 316° |
| 2026-05-07 16:08 | 40.71958 | -3.14567 | 8004 ft | 253 kts | 316° |
| 2026-05-07 16:08 | 40.73259 | -3.16120 | 8003 ft | 252 kts | 316° |
| 2026-05-07 16:08 | 40.74563 | -3.17674 | 8005 ft | 252 kts | 316° |
| 2026-05-07 16:09 | 40.75864 | -3.19225 | 8000 ft | 252 kts | 316° |
| 2026-05-07 16:09 | 40.77166 | -3.20777 | 8006 ft | 253 kts | 316° |
| 2026-05-07 16:09 | 40.78471 | -3.22340 | 8003 ft | 253 kts | 316° |
| 2026-05-07 16:09 | 40.79773 | -3.23899 | 8006 ft | 253 kts | 316° |
| 2026-05-07 16:10 | 40.81075 | -3.25457 | 8004 ft | 252 kts | 316° |
| 2026-05-07 16:10 | 40.82373 | -3.27005 | 8000 ft | 252 kts | 316° |
| 2026-05-07 16:10 | 40.83668 | -3.28552 | 8003 ft | 252 kts | 316° |
| 2026-05-07 16:10 | 40.84966 | -3.30103 | 8004 ft | 252 kts | 315° |
| 2026-05-07 16:11 | 40.86261 | -3.31656 | 8005 ft | 252 kts | 316° |
| 2026-05-07 16:11 | 40.87561 | -3.33214 | 8006 ft | 252 kts | 316° |
| 2026-05-07 16:11 | 40.88863 | -3.34775 | 8005 ft | 252 kts | 315° |
| 2026-05-07 16:11 | 40.90143 | -3.36317 | 8003 ft | 252 kts | 313° |
| 2026-05-07 16:12 | 40.91200 | -3.38128 | 8005 ft | 249 kts | 296° |
| 2026-05-07 16:12 | 40.91803 | -3.40250 | 7945 ft | 246 kts | 280° |
| 2026-05-07 16:12 | 40.92146 | -3.42465 | 7814 ft | 246 kts | 279° |
| 2026-05-07 16:12 | 40.92442 | -3.44711 | 7698 ft | 244 kts | 271° |
| 2026-05-07 16:13 | 40.92324 | -3.46927 | 7566 ft | 241 kts | 258° |
| 2026-05-07 16:13 | 40.92023 | -3.49082 | 7451 ft | 241 kts | 253° |
| 2026-05-07 16:13 | 40.91365 | -3.51094 | 7326 ft | 238 kts | 234° |
| 2026-05-07 16:13 | 40.90254 | -3.52701 | 7203 ft | 237 kts | 217° |
| 2026-05-07 16:14 | 40.88876 | -3.53871 | 7106 ft | 236 kts | 211° |
| 2026-05-07 16:14 | 40.87471 | -3.55012 | 7016 ft | 236 kts | 211° |
| 2026-05-07 16:14 | 40.86249 | -3.56007 | 7011 ft | 227 kts | 211° |
| 2026-05-07 16:14 | 40.84940 | -3.57055 | 7024 ft | 214 kts | 206° |
| 2026-05-07 16:15 | 40.83575 | -3.57616 | 7034 ft | 198 kts | 186° |
| 2026-05-07 16:15 | 40.82263 | -3.57645 | 7031 ft | 179 kts | 180° |
| 2026-05-07 16:15 | 40.81074 | -3.57638 | 7017 ft | 162 kts | 181° |
| 2026-05-07 16:15 | 40.79986 | -3.57636 | 7033 ft | 151 kts | 180° |
| 2026-05-07 16:16 | 40.78948 | -3.57633 | 7029 ft | 148 kts | 180° |
| 2026-05-07 16:16 | 40.77920 | -3.57628 | 6937 ft | 148 kts | 180° |
| 2026-05-07 16:16 | 40.76893 | -3.57622 | 6797 ft | 148 kts | 180° |
| 2026-05-07 16:16 | 40.75865 | -3.57617 | 6623 ft | 147 kts | 180° |
| 2026-05-07 16:17 | 40.74847 | -3.57611 | 6439 ft | 146 kts | 180° |
| 2026-05-07 16:17 | 40.73830 | -3.57605 | 6254 ft | 146 kts | 180° |
| 2026-05-07 16:17 | 40.72810 | -3.57599 | 6055 ft | 147 kts | 180° |
| 2026-05-07 16:17 | 40.71791 | -3.57593 | 5860 ft | 146 kts | 180° |
| 2026-05-07 16:18 | 40.70777 | -3.57587 | 5662 ft | 146 kts | 180° |
| 2026-05-07 16:18 | 40.69761 | -3.57581 | 5463 ft | 146 kts | 180° |
| 2026-05-07 16:18 | 40.68763 | -3.57575 | 5273 ft | 145 kts | 180° |
| 2026-05-07 16:18 | 40.67737 | -3.57569 | 5079 ft | 145 kts | 180° |
| 2026-05-07 16:19 | 40.66742 | -3.57564 | 4898 ft | 145 kts | 179° |
| 2026-05-07 16:19 | 40.65734 | -3.57558 | 4702 ft | 145 kts | 179° |
| 2026-05-07 16:19 | 40.64729 | -3.57552 | 4510 ft | 145 kts | 180° |
| 2026-05-07 16:19 | 40.63721 | -3.57546 | 4308 ft | 145 kts | 179° |
| 2026-05-07 16:20 | 40.62706 | -3.57540 | 4097 ft | 146 kts | 179° |
| 2026-05-07 16:20 | 40.61697 | -3.57534 | 3891 ft | 144 kts | 179° |
| 2026-05-07 16:20 | 40.60695 | -3.57528 | 3697 ft | 144 kts | 179° |
| 2026-05-07 16:20 | 40.59690 | -3.57523 | 3495 ft | 146 kts | 179° |
| 2026-05-07 16:21 | 40.58671 | -3.57517 | 3293 ft | 148 kts | 179° |
| 2026-05-07 16:21 | 40.57635 | -3.57511 | 3089 ft | 150 kts | 179° |
| 2026-05-07 16:21 | 40.56614 | -3.57506 | 2881 ft | 152 kts | 180° |
| 2026-05-07 16:21 | 40.55540 | -3.57507 | 2682 ft | 152 kts | 179° |
| 2026-05-07 16:22 | 40.54482 | -3.57493 | 2477 ft | 151 kts | 177° |
| 2026-05-07 16:22 | 40.53439 | -3.57485 | 2265 ft | 148 kts | 177° |
| 2026-05-07 16:22 | 40.52420 | -3.57486 | 2052 ft | 145 kts | 178° |
| 2026-05-07 16:22 | 40.51468 | -3.57478 | 1981 ft | 131 kts | 176° |
| 2026-05-07 16:23 | 40.50716 | -3.57471 | 1980 ft | 84 kts | 180° |
| 2026-05-07 16:23 | 40.50333 | -3.57469 | 1980 ft | 57 kts | 179° |
| 2026-05-07 16:23 | 40.50062 | -3.57451 | 1980 ft | 30 kts | 159° |
| 2026-05-07 16:23 | 40.49906 | -3.57365 | 1982 ft | 17 kts | 149° |
| 2026-05-07 16:24 | 40.49883 | -3.57347 | 1983 ft | 0 kts | 151° |
| 2026-05-07 16:25 | 40.49881 | -3.57346 | 1983 ft | 3 kts | 151° |
| 2026-05-07 16:25 | 40.49834 | -3.57311 | 1981 ft | 12 kts | 150° |
| 2026-05-07 16:25 | 40.49753 | -3.57239 | 1982 ft | 14 kts | 128° |
| 2026-05-07 16:25 | 40.49741 | -3.57152 | 1980 ft | 10 kts | 91° |
| 2026-05-07 16:26 | 40.49729 | -3.57039 | 1982 ft | 14 kts | 123° |
| 2026-05-07 16:26 | 40.49637 | -3.57009 | 1980 ft | 12 kts | 179° |
| 2026-05-07 16:26 | 40.49570 | -3.57009 | 1980 ft | 6 kts | 180° |
| 2026-05-07 16:26 | 40.49565 | -3.57009 | 1980 ft | 0 kts | 180° |
| 2026-05-07 16:27 | 40.49556 | -3.56998 | 1982 ft | 4 kts | 130° |
| 2026-05-07 16:27 | 40.49549 | -3.56938 | 1980 ft | 7 kts | 91° |
| 2026-05-07 16:27 | 40.49549 | -3.56889 | 1980 ft | 7 kts | 88° |
| 2026-05-07 16:27 | 40.49549 | -3.56877 | 1980 ft | 0 kts | 89° |